Main page
METAR-TAF:

METAR-TAF

Airports :

Khorramabad Airport

Khorramabad, Iran

latitude: 33-26-11N, longitude: 048-17-09E, elevation: 1155 m

Current weather observation

The report was made 53 minutes ago, at 14:51 UTC
Wind 6 kt from the West
Temperature 17°C
Humidity 77%
Pressure 1020 hPa
Visibility: 8000 m
Few clouds at a height of 3500 ft, Cumulonimbus.
Scattered clouds at a height of 4000 ft
Overcast at a height of 8000 ft
thunderstorm, light rain

METAR: OICK 201451Z 27006KT 8000 -TSRA FEW035CB SCT040 OVC080 17/13 Q1020

Time: 20:14 (15:44 UTC)


TAF: missing

Weather observations and forecasts of more than 4000 airports (METAR and TAF reports).

The available stations are represented by yellow and red dots on the map.

Hover mouse over dot to see the name of the station.

Then click to see weather observations and forecasts.

To change the map : click on the green buttons with a black cross to zoom in, on the green button with a dash to zoom out, or on the green arrows for adjacent maps.


METAR-TAF: